Observation data for Fluvanna on 02/15/2017      Previous  Date  Next       Current Mesonet Observations  Soil Data  Daily Summary Page  Observations in Plain Language
KFVS 150600Z 34007KT 04/M01 A3016 RMK A01 T00351010  RH  073%=      5-min Rain = 0
KFVS 150605Z 34007KT 03/M01 A3016 RMK A01 T00341010  RH  073%=      5-min Rain = 0
KFVS 150610Z 34008KT 04/M01 A3016 RMK A01 T00351011  RH  072%=      5-min Rain = 0
KFVS 150615Z 34009KT 04/M01 A3016 RMK A01 T00381012  RH  070%=      5-min Rain = 0
KFVS 150620Z 33010KT 04/M01 A3016 RMK A01 T00391013  RH  069%=      5-min Rain = 0
KFVS 150625Z 33012KT 04/M02 A3016 RMK A01 T00431015  RH  067%=      5-min Rain = 0
KFVS 150630Z 33011KT 04/M01 A3016 RMK A01 T00441014  RH  067%=      5-min Rain = 0
KFVS 150635Z 33010KT 04/M01 A3016 RMK A01 T00411013  RH  068%=      5-min Rain = 0
KFVS 150640Z 33009KT 04/M01 A3016 RMK A01 T00391012  RH  070%=      5-min Rain = 0
KFVS 150645Z 33008KT 03/M01 A3017 RMK A01 T00341012  RH  072%=      5-min Rain = 0
KFVS 150650Z 33007KT 03/M01 A3017 RMK A01 T00311013  RH  073%=      5-min Rain = 0
KFVS 150655Z 33009KT 03/M01 A3017 RMK A01 T00331014  RH  072%=      5-min Rain = 0
KFVS 150700Z 33008KT 03/M01 A3017 RMK A01 T00341013  RH  072%=      5-min Rain = 0
KFVS 150705Z 33008KT 03/M01 A3017 RMK A01 T00321014  RH  073%=      5-min Rain = 0
KFVS 150710Z 34008KT 03/M02 A3017 RMK A01 T00341015  RH  072%=      5-min Rain = 0
KFVS 150715Z 34009KT 03/M01 A3016 RMK A01 T00321014  RH  072%=      5-min Rain = 0
KFVS 150720Z 34009KT 03/M02 A3016 RMK A01 T00311015  RH  073%=      5-min Rain = 0
KFVS 150725Z 34009KT 03/M02 A3016 RMK A01 T00321015  RH  072%=      5-min Rain = 0
KFVS 150730Z 34009KT 03/M02 A3016 RMK A01 T00331016  RH  071%=      5-min Rain = 0
KFVS 150735Z 34010KT 03/M02 A3016 RMK A01 T00321016  RH  072%=      5-min Rain = 0
KFVS 150740Z 33011KT 03/M02 A3016 RMK A01 T00331017  RH  070%=      5-min Rain = 0
KFVS 150745Z 33011KT 04/M02 A3016 RMK A01 T00351017  RH  069%=      5-min Rain = 0
KFVS 150750Z 33012KT 04/M02 A3016 RMK A01 T00351016  RH  070%=      5-min Rain = 0
KFVS 150755Z 33011KT 04/M02 A3016 RMK A01 T00361016  RH  069%=      5-min Rain = 0
KFVS 150800Z 34012KT 04/M02 A3016 RMK A01 T00371017  RH  069%=      5-min Rain = 0
KFVS 150805Z 33010KT 04/M02 A3016 RMK A01 T00361016  RH  070%=      5-min Rain = 0
KFVS 150810Z 33010KT 03/M02 A3017 RMK A01 T00331016  RH  071%=      5-min Rain = 0
KFVS 150815Z 33010KT 03/M02 A3016 RMK A01 T00341016  RH  071%=      5-min Rain = 0
KFVS 150820Z 33010KT 04/M02 A3017 RMK A01 T00351016  RH  070%=      5-min Rain = 0
KFVS 150825Z 32010KT 04/M02 A3017 RMK A01 T00361017  RH  069%=      5-min Rain = 0
KFVS 150830Z 32010KT 04/M02 A3017 RMK A01 T00361017  RH  069%=      5-min Rain = 0
KFVS 150835Z 31010KT 04/M02 A3017 RMK A01 T00361017  RH  069%=      5-min Rain = 0
KFVS 150840Z 31009KT 04/M02 A3017 RMK A01 T00351017  RH  069%=      5-min Rain = 0
KFVS 150845Z 31009KT 04/M02 A3017 RMK A01 T00351017  RH  070%=      5-min Rain = 0
KFVS 150850Z 30009KT 04/M02 A3017 RMK A01 T00371019  RH  068%=      5-min Rain = 0
KFVS 150855Z 30009KT 04/M02 A3017 RMK A01 T00371019  RH  068%=      5-min Rain = 0
KFVS 150900Z 30009KT 04/M02 A3017 RMK A01 T00371019  RH  068%=      5-min Rain = 0
KFVS 150905Z 30008KT 04/M02 A3017 RMK A01 T00351019  RH  068%=      5-min Rain = 0
KFVS 150910Z 31008KT 04/M02 A3017 RMK A01 T00351020  RH  068%=      5-min Rain = 0
KFVS 150915Z 32007KT 04/M02 A3017 RMK A01 T00351020  RH  068%=      5-min Rain = 0
KFVS 150920Z 32008KT 03/M02 A3017 RMK A01 T00341020  RH  068%=      5-min Rain = 0
KFVS 150925Z 33008KT 03/M02 A3017 RMK A01 T00341020  RH  068%=      5-min Rain = 0
KFVS 150930Z 33006KT 03/M02 A3017 RMK A01 T00331020  RH  069%=      5-min Rain = 0
KFVS 150935Z 32006KT 03/M02 A3017 RMK A01 T00311021  RH  069%=      5-min Rain = 0
KFVS 150940Z 32006KT 03/M02 A3017 RMK A01 T00311022  RH  069%=      5-min Rain = 0
KFVS 150945Z 32007KT 03/M02 A3017 RMK A01 T00331023  RH  067%=      5-min Rain = 0
KFVS 150950Z 32008KT 03/M02 A3017 RMK A01 T00331023  RH  067%=      5-min Rain = 0
KFVS 150955Z 32008KT 03/M02 A3017 RMK A01 T00321023  RH  068%=      5-min Rain = 0
KFVS 151000Z 32009KT 03/M02 A3017 RMK A01 T00321023  RH  068%=      5-min Rain = 0
KFVS 151005Z 32008KT 03/M02 A3017 RMK A01 T00311024  RH  068%=      5-min Rain = 0
KFVS 151010Z 33009KT 03/M02 A3017 RMK A01 T00301023  RH  069%=      5-min Rain = 0
KFVS 151015Z 33008KT 03/M02 A3017 RMK A01 T00271022  RH  071%=      5-min Rain = 0
KFVS 151020Z 32009KT 03/M02 A3017 RMK A01 T00271024  RH  070%=      5-min Rain = 0
KFVS 151025Z 33009KT 03/M02 A3017 RMK A01 T00261024  RH  071%=      5-min Rain = 0
KFVS 151030Z 33009KT 02/M02 A3017 RMK A01 T00241023  RH  072%=      5-min Rain = 0
KFVS 151035Z 33008KT 02/M02 A3018 RMK A01 T00231023  RH  072%=      5-min Rain = 0
KFVS 151040Z 32007KT 02/M02 A3018 RMK A01 T00221023  RH  073%=      5-min Rain = 0
KFVS 151045Z 32008KT 02/M02 A3018 RMK A01 T00221024  RH  072%=      5-min Rain = 0
KFVS 151050Z 33009KT 02/M02 A3018 RMK A01 T00231024  RH  072%=      5-min Rain = 0
KFVS 151055Z 32009KT 02/M03 A3018 RMK A01 T00241025  RH  071%=      5-min Rain = 0
KFVS 151100Z 33009KT 02/M03 A3018 RMK A01 T00231025  RH  071%=      5-min Rain = 0
KFVS 151105Z 33009KT 03/M03 A3018 RMK A01 T00251026  RH  070%=      5-min Rain = 0
KFVS 151110Z 34009KT 03/M03 A3018 RMK A01 T00251026  RH  070%=      5-min Rain = 0
KFVS 151115Z 33008KT 02/M03 A3018 RMK A01 T00241025  RH  071%=      5-min Rain = 0
KFVS 151120Z 33008KT 02/M03 A3018 RMK A01 T00231026  RH  071%=      5-min Rain = 0
KFVS 151125Z 33007KT 02/M03 A3018 RMK A01 T00231026  RH  071%=      5-min Rain = 0
KFVS 151130Z 32008KT 02/M03 A3018 RMK A01 T00231027  RH  070%=      5-min Rain = 0
KFVS 151135Z 32008KT 03/M03 A3018 RMK A01 T00251026  RH  070%=      5-min Rain = 0
KFVS 151140Z 32010KT 03/M03 A3018 RMK A01 T00251027  RH  070%=      5-min Rain = 0
KFVS 151145Z 33009KT 03/M03 A3018 RMK A01 T00261027  RH  069%=      5-min Rain = 0
KFVS 151150Z 33009KT 03/M03 A3018 RMK A01 T00261027  RH  069%=      5-min Rain = 0
KFVS 151155Z 33009KT 03/M03 A3018 RMK A01 T00261026  RH  069%=      5-min Rain = 0
KFVS 151200Z 32008KT 02/M03 A3018 RMK A01 T00241026  RH  071%=      5-min Rain = 0
KFVS 151205Z 32010KT 02/M03 A3018 RMK A01 T00231026  RH  071%=      5-min Rain = 0
KFVS 151210Z 33010KT 02/M03 A3018 RMK A01 T00231025  RH  071%=      5-min Rain = 0
KFVS 151215Z 33010KT 02/M03 A3018 RMK A01 T00241026  RH  070%=      5-min Rain = 0
KFVS 151220Z 32011KT 03/M03 A3018 RMK A01 T00251026  RH  070%=      5-min Rain = 0
KFVS 151225Z 33012KT 03/M03 A3018 RMK A01 T00271026  RH  069%=      5-min Rain = 0
KFVS 151230Z 33010KT 03/M03 A3018 RMK A01 T00271026  RH  069%=      5-min Rain = 0
KFVS 151235Z 33009KT 03/M03 A3018 RMK A01 T00251025  RH  070%=      5-min Rain = 0
KFVS 151240Z 33008KT 02/M03 A3019 RMK A01 T00231025  RH  071%=      5-min Rain = 0
KFVS 151245Z 33009KT 02/M03 A3019 RMK A01 T00221026  RH  072%=      5-min Rain = 0
KFVS 151250Z 33009KT 02/M03 A3019 RMK A01 T00211026  RH  072%=      5-min Rain = 0
KFVS 151255Z 33009KT 02/M03 A3019 RMK A01 T00221026  RH  072%=      5-min Rain = 0
KFVS 151300Z 33009KT 02/M03 A3019 RMK A01 T00221026  RH  071%=      5-min Rain = 0
KFVS 151305Z 33009KT 02/M03 A302 RMK A01 T00211025  RH  072%=      5-min Rain = 0
KFVS 151310Z 33008KT 02/M03 A302 RMK A01 T00201026  RH  072%=      5-min Rain = 0
KFVS 151315Z 32009KT 02/M03 A302 RMK A01 T00201026  RH  073%=      5-min Rain = 0
KFVS 151320Z 32009KT 02/M03 A3021 RMK A01 T00201025  RH  073%=      5-min Rain = 0
KFVS 151325Z 33009KT 02/M03 A3021 RMK A01 T00181026  RH  074%=      5-min Rain = 0
KFVS 151330Z 33010KT 02/M03 A3021 RMK A01 T00191025  RH  073%=      5-min Rain = 0
KFVS 151335Z 33010KT 02/M03 A3021 RMK A01 T00181025  RH  074%=      5-min Rain = 0
KFVS 151340Z 33010KT 02/M03 A3022 RMK A01 T00201025  RH  073%=      5-min Rain = 0
KFVS 151345Z 32009KT 02/M02 A3022 RMK A01 T00201024  RH  074%=      5-min Rain = 0
KFVS 151350Z 33009KT 02/M02 A3022 RMK A01 T00201024  RH  074%=      5-min Rain = 0
KFVS 151355Z 33009KT 02/M02 A3022 RMK A01 T00181022  RH  075%=      5-min Rain = 0
KFVS 151400Z 33009KT 02/M02 A3022 RMK A01 T00191021  RH  075%=      5-min Rain = 0
KFVS 151405Z 33008KT 02/M02 A3022 RMK A01 T00201021  RH  075%=      5-min Rain = 0
KFVS 151410Z 33008KT 02/M02 A3023 RMK A01 T00221019  RH  075%=      5-min Rain = 0
KFVS 151415Z 34009KT 02/M02 A3023 RMK A01 T00231018  RH  075%=      5-min Rain = 0
KFVS 151420Z 34008KT 03/M02 A3023 RMK A01 T00251017  RH  075%=      5-min Rain = 0
KFVS 151425Z 34009KT 03/M02 A3023 RMK A01 T00281016  RH  074%=      5-min Rain = 0
KFVS 151430Z 34008KT 03/M02 A3023 RMK A01 T00301015  RH  073%=      5-min Rain = 0
KFVS 151435Z 34008KT 03/M02 A3024 RMK A01 T00311015  RH  073%=      5-min Rain = 0
KFVS 151440Z 34009G14KT 03/M02 A3024 RMK A01 T00331016  RH  071%=      5-min Rain = 0
KFVS 151445Z 34010KT 04/M02 A3024 RMK A01 T00351016  RH  070%=      5-min Rain = 0
KFVS 151450Z 34009G14KT 04/M02 A3024 RMK A01 T00381015  RH  069%=      5-min Rain = 0
KFVS 151455Z 35009KT 04/M01 A3024 RMK A01 T00391014  RH  069%=      5-min Rain = 0
KFVS 151500Z 35009KT 04/M02 A3024 RMK A01 T00391015  RH  069%=      5-min Rain = 0
KFVS 151505Z 35010KT 04/M01 A3025 RMK A01 T00401014  RH  068%=      5-min Rain = 0
KFVS 151510Z 35011KT 04/M02 A3025 RMK A01 T00421017  RH  066%=      5-min Rain = 0
KFVS 151515Z 35012KT 04/M02 A3025 RMK A01 T00431015  RH  067%=      5-min Rain = 0
KFVS 151520Z 35012KT 04/M02 A3025 RMK A01 T00431015  RH  067%=      5-min Rain = 0
KFVS 151525Z 35011KT 04/M01 A3026 RMK A01 T00431014  RH  067%=      5-min Rain = 0
KFVS 151530Z 35009KT 04/M01 A3026 RMK A01 T00441011  RH  068%=      5-min Rain = 0
KFVS 151535Z 35010KT 04/M01 A3026 RMK A01 T00441013  RH  067%=      5-min Rain = 0
KFVS 151540Z 35010KT 05/M01 A3026 RMK A01 T00451011  RH  068%=      5-min Rain = 0
KFVS 151545Z 35010KT 05/M01 A3026 RMK A01 T00471010  RH  067%=      5-min Rain = 0
KFVS 151550Z 35010KT 05/M01 A3026 RMK A01 T00491005  RH  069%=      5-min Rain = 0
KFVS 151555Z 35010KT 05/M01 A3026 RMK A01 T00501008  RH  066%=      5-min Rain = 0
KFVS 151600Z 34010KT 05/M01 A3027 RMK A01 T00511009  RH  066%=      5-min Rain = 0
KFVS 151605Z 34009KT 05/M01 A3027 RMK A01 T00521008  RH  066%=      5-min Rain = 0
KFVS 151610Z 34009KT 05/M01 A3027 RMK A01 T00531010  RH  065%=      5-min Rain = 0
KFVS 151615Z 34010KT 06/M01 A3027 RMK A01 T00561006  RH  065%=      5-min Rain = 0
KFVS 151620Z 35009KT 06/M00 A3027 RMK A01 T00581004  RH  065%=      5-min Rain = 0
KFVS 151625Z 35008KT 06/M01 A3027 RMK A01 T00591008  RH  063%=      5-min Rain = 0
KFVS 151630Z 34008KT 06/M00 A3027 RMK A01 T00611003  RH  064%=      5-min Rain = 0
KFVS 151635Z 00009KT 06/M01 A3027 RMK A01 T00641006  RH  061%=      5-min Rain = 0
KFVS 151640Z 34009KT 07/M01 A3027 RMK A01 T00651005  RH  062%=      5-min Rain = 0
KFVS 151645Z 34008KT 07/M01 A3027 RMK A01 T00651005  RH  061%=      5-min Rain = 0
KFVS 151650Z 36009KT 07/M01 A3027 RMK A01 T00681008  RH  059%=      5-min Rain = 0
KFVS 151655Z 34008KT 07/M01 A3027 RMK A01 T00691007  RH  059%=      5-min Rain = 0
KFVS 151700Z 35006KT 07/M01 A3027 RMK A01 T00711005  RH  059%=      5-min Rain = 0
KFVS 151705Z 34008KT 07/M00 A3027 RMK A01 T00731002  RH  060%=      5-min Rain = 0
KFVS 151710Z 35007KT 08/M01 A3027 RMK A01 T00751005  RH  058%=      5-min Rain = 0
KFVS 151715Z 35007KT 08/M01 A3027 RMK A01 T00771006  RH  057%=      5-min Rain = 0
KFVS 151720Z 34006KT 08/M01 A3027 RMK A01 T00781005  RH  056%=      5-min Rain = 0
KFVS 151725Z 34008KT 08/M01 A3027 RMK A01 T00801006  RH  055%=      5-min Rain = 0
KFVS 151730Z 34007KT 08/M01 A3027 RMK A01 T00791010  RH  054%=      5-min Rain = 0
KFVS 151735Z 36006KT 08/M01 A3027 RMK A01 T00811010  RH  053%=      5-min Rain = 0
KFVS 151740Z 00007KT 08/M01 A3027 RMK A01 T00831008  RH  053%=      5-min Rain = 0
KFVS 151745Z 34005KT 08/M01 A3027 RMK A01 T00821010  RH  053%=      5-min Rain = 0
KFVS 151750Z 32005KT 08/M01 A3027 RMK A01 T00821011  RH  052%=      5-min Rain = 0
KFVS 151755Z 01003KT 08/M02 A3027 RMK A01 T00821019  RH  049%=      5-min Rain = 0
KFVS 151800Z 33005G10KT 09/M01 A3026 RMK A01 T00861005  RH  053%=      5-min Rain = 0
KFVS 151805Z 33005KT 09/M01 A3026 RMK A01 T00871010  RH  051%=      5-min Rain = 0
KFVS 151810Z 35005KT 09/M01 A3026 RMK A01 T00881010  RH  051%=      5-min Rain = 0
KFVS 151815Z 32006KT 09/M01 A3026 RMK A01 T00891005  RH  052%=      5-min Rain = 0
KFVS 151820Z 33009KT 09/M01 A3025 RMK A01 T00911005  RH  052%=      5-min Rain = 0
KFVS 151825Z 33007KT 09/M01 A3025 RMK A01 T00921006  RH  051%=      5-min Rain = 0
KFVS 151830Z 34007KT 09/M02 A3025 RMK A01 T00921015  RH  047%=      5-min Rain = 0
KFVS 151835Z 00007G12KT 09/M02 A3025 RMK A01 T00931015  RH  047%=      5-min Rain = 0
KFVS 151840Z 01008KT 10/M02 A3024 RMK A01 T00951019  RH  045%=      5-min Rain = 0
KFVS 151845Z 35009KT 10/M01 A3024 RMK A01 T00971007  RH  049%=      5-min Rain = 0
KFVS 151850Z 01008G13KT 10/M02 A3024 RMK A01 T00981016  RH  045%=      5-min Rain = 0
KFVS 151855Z 01009KT 10/M02 A3024 RMK A01 T00971021  RH  044%=      5-min Rain = 0
KFVS 151900Z 34005G10KT 10/M01 A3023 RMK A01 T00981013  RH  047%=      5-min Rain = 0
KFVS 151905Z 35008KT 10/M01 A3023 RMK A01 T01001009  RH  047%=      5-min Rain = 0
KFVS 151910Z 34010G15KT 10/M00 A3023 RMK A01 T01021001  RH  049%=      5-min Rain = 0
KFVS 151915Z 35007G12KT 10/M01 A3022 RMK A01 T01001012  RH  046%=      5-min Rain = 0
KFVS 151920Z 36006KT 10/M02 A3022 RMK A01 T01001020  RH  044%=      5-min Rain = 0
KFVS 151925Z 35006KT 10/M02 A3022 RMK A01 T01031019  RH  043%=      5-min Rain = 0
KFVS 151930Z 34007G13KT 10/M02 A3022 RMK A01 T01031015  RH  044%=      5-min Rain = 0
KFVS 151935Z 36007KT 11/M01 A3021 RMK A01 T01051014  RH  044%=      5-min Rain = 0
KFVS 151940Z 30006KT 11/M01 A3021 RMK A01 T01061005  RH  047%=      5-min Rain = 0
KFVS 151945Z 33008KT 11/M00 A3021 RMK A01 T01071002  RH  048%=      5-min Rain = 0
KFVS 151950Z 35008KT 11/M01 A3021 RMK A01 T01071007  RH  046%=      5-min Rain = 0
KFVS 151955Z 36006KT 11/M02 A302 RMK A01 T01061015  RH  044%=      5-min Rain = 0
KFVS 152000Z 33004G9KT 11/M02 A302 RMK A01 T01071016  RH  043%=      5-min Rain = 0
KFVS 152005Z 35006G12KT 11/M02 A302 RMK A01 T01091017  RH  042%=      5-min Rain = 0
KFVS 152010Z 32006G12KT 11/M02 A302 RMK A01 T01091016  RH  042%=      5-min Rain = 0
KFVS 152015Z 31006KT 11/M01 A3019 RMK A01 T01101008  RH  044%=      5-min Rain = 0
KFVS 152020Z 32006KT 11/M02 A3019 RMK A01 T01101015  RH  042%=      5-min Rain = 0
KFVS 152025Z 32009KT 11/M01 A3019 RMK A01 T01111009  RH  044%=      5-min Rain = 0
KFVS 152030Z 31008KT 11/M01 A3019 RMK A01 T01091014  RH  043%=      5-min Rain = 0
KFVS 152035Z 33008KT 11/M02 A3018 RMK A01 T01091016  RH  042%=      5-min Rain = 0
KFVS 152040Z 01007KT 11/M02 A3018 RMK A01 T01111020  RH  040%=      5-min Rain = 0
KFVS 152045Z 01005KT 11/M02 A3018 RMK A01 T01131020  RH  040%=      5-min Rain = 0
KFVS 152050Z 36007G12KT 11/M02 A3018 RMK A01 T01141017  RH  041%=      5-min Rain = 0
KFVS 152055Z 01008KT 11/M02 A3018 RMK A01 T01121023  RH  039%=      5-min Rain = 0
KFVS 152100Z 01005KT 11/M02 A3017 RMK A01 T01131021  RH  040%=      5-min Rain = 0
KFVS 152105Z 35008KT 12/M02 A3017 RMK A01 T01151017  RH  040%=      5-min Rain = 0
KFVS 152110Z 33004KT 11/M02 A3017 RMK A01 T01141019  RH  040%=      5-min Rain = 0
KFVS 152115Z 31007G12KT 12/M02 A3017 RMK A01 T01151016  RH  040%=      5-min Rain = 0
KFVS 152120Z 31009KT 12/M01 A3017 RMK A01 T01151007  RH  043%=      5-min Rain = 0
KFVS 152125Z 33006KT 12/M02 A3017 RMK A01 T01151017  RH  040%=      5-min Rain = 0
KFVS 152130Z 32005KT 12/M02 A3017 RMK A01 T01151019  RH  040%=      5-min Rain = 0
KFVS 152135Z 33005KT 12/M03 A3017 RMK A01 T01151026  RH  038%=      5-min Rain = 0
KFVS 152140Z 33009G14KT 12/M01 A3017 RMK A01 T01161011  RH  042%=      5-min Rain = 0
KFVS 152145Z 32009KT 12/M00 A3016 RMK A01 T01161001  RH  045%=      5-min Rain = 0
KFVS 152150Z 31008KT 12/M01 A3016 RMK A01 T01181006  RH  043%=      5-min Rain = 0
KFVS 152155Z 31006KT 12/M02 A3016 RMK A01 T01161016  RH  040%=      5-min Rain = 0
KFVS 152200Z 32008KT 12/M01 A3016 RMK A01 T01181012  RH  041%=      5-min Rain = 0
KFVS 152205Z 34007KT 12/M02 A3016 RMK A01 T01161024  RH  038%=      5-min Rain = 0
KFVS 152210Z 32005KT 12/M03 A3016 RMK A01 T01161031  RH  036%=      5-min Rain = 0
KFVS 152215Z 31006KT 12/M02 A3016 RMK A01 T01171022  RH  038%=      5-min Rain = 0
KFVS 152220Z 30006KT 12/M02 A3015 RMK A01 T01181020  RH  039%=      5-min Rain = 0
KFVS 152225Z 34008KT 12/M02 A3015 RMK A01 T01181018  RH  039%=      5-min Rain = 0
KFVS 152230Z 34008G13KT 12/M02 A3016 RMK A01 T01161022  RH  039%=      5-min Rain = 0
KFVS 152235Z 35005KT 12/M03 A3016 RMK A01 T01161030  RH  036%=      5-min Rain = 0
KFVS 152240Z 34006G11KT 12/M03 A3015 RMK A01 T01161029  RH  037%=      5-min Rain = 0
KFVS 152245Z 35007KT 12/M02 A3015 RMK A01 T01171024  RH  038%=      5-min Rain = 0
KFVS 152250Z 32005KT 12/M04 A3015 RMK A01 T01161038  RH  034%=      5-min Rain = 0
KFVS 152255Z 32003KT 12/M03 A3015 RMK A01 T01171034  RH  035%=      5-min Rain = 0
KFVS 152300Z 32006KT 12/M02 A3015 RMK A01 T01181022  RH  038%=      5-min Rain = 0
KFVS 152305Z 33004KT 12/M03 A3015 RMK A01 T01181025  RH  037%=      5-min Rain = 0
KFVS 152310Z 32005KT 12/M02 A3015 RMK A01 T01181020  RH  039%=      5-min Rain = 0
KFVS 152315Z 35006KT 12/M03 A3015 RMK A01 T01171025  RH  037%=      5-min Rain = 0
KFVS 152320Z 34007KT 12/M03 A3015 RMK A01 T01161025  RH  038%=      5-min Rain = 0
KFVS 152325Z 35004KT 12/M03 A3015 RMK A01 T01151034  RH  035%=      5-min Rain = 0
KFVS 152330Z 34003KT 12/M03 A3015 RMK A01 T01161028  RH  037%=      5-min Rain = 0
KFVS 152335Z 34003KT 12/M03 A3015 RMK A01 T01171025  RH  037%=      5-min Rain = 0
KFVS 152340Z 34006KT 12/M02 A3015 RMK A01 T01151021  RH  039%=      5-min Rain = 0
KFVS 152345Z 35003KT 11/M03 A3014 RMK A01 T01141028  RH  037%=      5-min Rain = 0
KFVS 152350Z 35003KT 12/M03 A3014 RMK A01 T01151027  RH  038%=      5-min Rain = 0
KFVS 152355Z 33004KT 12/M01 A3014 RMK A01 T01151014  RH  041%=      5-min Rain = 0
KFVS 160000Z 34004KT 11/M01 A3014 RMK A01 T01131006  RH  044%=      5-min Rain = 0
KFVS 160005Z 34004KT 11/M01 A3014 RMK A01 T01111007  RH  044%=      5-min Rain = 0
KFVS 160010Z 32003KT 11/01 A3014 RMK A01 T01100008  RH  050%=      5-min Rain = 0
KFVS 160015Z 31003KT 11/M01 A3014 RMK A01 T01091005  RH  046%=      5-min Rain = 0
KFVS 160020Z 30002KT 11/M01 A3014 RMK A01 T01091011  RH  044%=      5-min Rain = 0
KFVS 160025Z 29003KT 11/M00 A3014 RMK A01 T01081003  RH  047%=      5-min Rain = 0
KFVS 160030Z 28003KT 10/01 A3014 RMK A01 T01040012  RH  054%=      5-min Rain = 0
KFVS 160035Z 27003KT 10/01 A3014 RMK A01 T00990005  RH  053%=      5-min Rain = 0
KFVS 160040Z 26003KT 10/00 A3014 RMK A01 T00970001  RH  052%=      5-min Rain = 0
KFVS 160045Z 28002KT 10/M01 A3014 RMK A01 T00961010  RH  048%=      5-min Rain = 0
KFVS 160050Z 28002KT 10/M01 A3014 RMK A01 T00961005  RH  050%=      5-min Rain = 0
KFVS 160055Z 29002KT 09/00 A3014 RMK A01 T00900002  RH  055%=      5-min Rain = 0
KFVS 160100Z 29002KT 09/00 A3014 RMK A01 T00860002  RH  056%=      5-min Rain = 0
KFVS 160105Z 28002KT 08/00 A3014 RMK A01 T008300-0  RH  056%=      5-min Rain = 0
KFVS 160110Z 27002KT 08/M00 A3014 RMK A01 T00811002  RH  056%=      5-min Rain = 0
KFVS 160115Z 26001KT 08/M01 A3014 RMK A01 T00791006  RH  055%=      5-min Rain = 0
KFVS 160120Z 25002KT 08/M01 A3014 RMK A01 T00811010  RH  053%=      5-min Rain = 0
KFVS 160125Z 25002KT 08/M01 A3014 RMK A01 T00821012  RH  052%=      5-min Rain = 0
KFVS 160130Z 25002KT 08/M02 A3014 RMK A01 T00831016  RH  050%=      5-min Rain = 0
KFVS 160135Z 25002KT 08/M02 A3014 RMK A01 T00841017  RH  050%=      5-min Rain = 0
KFVS 160140Z 25001KT 08/M02 A3014 RMK A01 T00791017  RH  051%=      5-min Rain = 0
KFVS 160145Z 23001KT 08/M02 A3014 RMK A01 T00771018  RH  052%=      5-min Rain = 0
KFVS 160150Z 21002KT 08/M02 A3014 RMK A01 T00751018  RH  052%=      5-min Rain = 0
KFVS 160155Z 20003KT 07/M02 A3014 RMK A01 T00721019  RH  053%=      5-min Rain = 0
KFVS 160200Z 21003KT 08/M02 A3014 RMK A01 T00751020  RH  052%=      5-min Rain = 0
KFVS 160205Z 20004KT 08/M02 A3014 RMK A01 T00781022  RH  050%=      5-min Rain = 0
KFVS 160210Z 21004KT 08/M02 A3014 RMK A01 T00771019  RH  051%=      5-min Rain = 0
KFVS 160215Z 20004KT 08/M02 A3014 RMK A01 T00751019  RH  052%=      5-min Rain = 0
KFVS 160220Z 20005KT 07/M02 A3014 RMK A01 T00731018  RH  053%=      5-min Rain = 0
KFVS 160225Z 19005KT 07/M02 A3014 RMK A01 T00701019  RH  054%=      5-min Rain = 0
KFVS 160230Z 20004KT 07/M02 A3014 RMK A01 T00701021  RH  053%=      5-min Rain = 0
KFVS 160235Z 20004KT 07/M02 A3014 RMK A01 T00721021  RH  052%=      5-min Rain = 0
KFVS 160240Z 19004KT 07/M02 A3014 RMK A01 T00711020  RH  053%=      5-min Rain = 0
KFVS 160245Z 19004KT 07/M02 A3014 RMK A01 T00691015  RH  056%=      5-min Rain = 0
KFVS 160250Z 19003KT 07/M01 A3015 RMK A01 T00651012  RH  058%=      5-min Rain = 0
KFVS 160255Z 18003KT 06/M02 A3015 RMK A01 T00611017  RH  058%=      5-min Rain = 0
KFVS 160300Z 18003KT 06/M02 A3015 RMK A01 T00581016  RH  060%=      5-min Rain = 0
KFVS 160305Z 16003KT 06/M01 A3015 RMK A01 T00561009  RH  063%=      5-min Rain = 0
KFVS 160310Z 16004KT 05/M01 A3015 RMK A01 T00531009  RH  065%=      5-min Rain = 0
KFVS 160315Z 16005KT 05/M01 A3015 RMK A01 T00541009  RH  064%=      5-min Rain = 0
KFVS 160320Z 17006KT 06/M01 A3015 RMK A01 T00551011  RH  063%=      5-min Rain = 0
KFVS 160325Z 16006KT 06/M01 A3015 RMK A01 T00551012  RH  062%=      5-min Rain = 0
KFVS 160330Z 16006KT 06/M01 A3014 RMK A01 T00561013  RH  062%=      5-min Rain = 0
KFVS 160335Z 17006KT 06/M02 A3014 RMK A01 T00561015  RH  061%=      5-min Rain = 0
KFVS 160340Z 17006KT 06/M02 A3014 RMK A01 T00581017  RH  059%=      5-min Rain = 0
KFVS 160345Z 17006KT 06/M02 A3015 RMK A01 T00601019  RH  058%=      5-min Rain = 0
KFVS 160350Z 17005KT 06/M02 A3014 RMK A01 T00611021  RH  056%=      5-min Rain = 0
KFVS 160355Z 17005KT 06/M02 A3014 RMK A01 T00611023  RH  056%=      5-min Rain = 0
KFVS 160400Z 17006KT 06/M03 A3014 RMK A01 T00621025  RH  055%=      5-min Rain = 0
KFVS 160405Z 17006KT 06/M03 A3014 RMK A01 T00621026  RH  054%=      5-min Rain = 0
KFVS 160410Z 18006KT 06/M02 A3014 RMK A01 T00611024  RH  055%=      5-min Rain = 0
KFVS 160415Z 18006KT 06/M02 A3014 RMK A01 T00591024  RH  055%=      5-min Rain = 0
KFVS 160420Z 18006KT 06/M03 A3014 RMK A01 T00591026  RH  055%=      5-min Rain = 0
KFVS 160425Z 18006KT 06/M02 A3014 RMK A01 T00581024  RH  056%=      5-min Rain = 0
KFVS 160430Z 18006KT 06/M03 A3014 RMK A01 T00581027  RH  055%=      5-min Rain = 0
KFVS 160435Z 18006KT 06/M03 A3014 RMK A01 T00591029  RH  054%=      5-min Rain = 0
KFVS 160440Z 19005KT 06/M03 A3014 RMK A01 T00581027  RH  055%=      5-min Rain = 0
KFVS 160445Z 19005KT 06/M03 A3014 RMK A01 T00561025  RH  057%=      5-min Rain = 0
KFVS 160450Z 20005KT 06/M02 A3014 RMK A01 T00551022  RH  058%=      5-min Rain = 0
KFVS 160455Z 20005KT 05/M02 A3014 RMK A01 T00531022  RH  059%=      5-min Rain = 0
KFVS 160500Z 20004KT 05/M02 A3014 RMK A01 T00541022  RH  059%=      5-min Rain = 0
KFVS 160505Z 20004KT 05/M02 A3014 RMK A01 T00541024  RH  058%=      5-min Rain = 0
KFVS 160510Z 20005KT 06/M02 A3014 RMK A01 T00551024  RH  057%=      5-min Rain = 0
KFVS 160515Z 20004KT 05/M03 A3014 RMK A01 T00541025  RH  057%=      5-min Rain = 0
KFVS 160520Z 20005KT 05/M02 A3014 RMK A01 T00531024  RH  058%=      5-min Rain = 0
KFVS 160525Z 21005KT 05/M02 A3014 RMK A01 T00531024  RH  058%=      5-min Rain = 0
KFVS 160530Z 20004KT 05/M02 A3014 RMK A01 T00521023  RH  059%=      5-min Rain = 0
KFVS 160535Z 20004KT 05/M02 A3014 RMK A01 T00521024  RH  059%=      5-min Rain = 0
KFVS 160540Z 21004KT 05/M02 A3013 RMK A01 T00521024  RH  059%=      5-min Rain = 0
KFVS 160545Z 21004KT 05/M02 A3013 RMK A01 T00521024  RH  059%=      5-min Rain = 0
KFVS 160550Z 21004KT 05/M02 A3013 RMK A01 T00531024  RH  058%=      5-min Rain = 0
KFVS 160555Z 22004KT 06/M02 A3013 RMK A01 T00551024  RH  057%=      5-min Rain = 0

Page generated in 0.0266 seconds.